sensor_id;sensor_type;location;lat;lon;timestamp;pressure;altitude;pressure_sealevel;temperature;humidity
37304;BME280;23188;51.188;16.374;2023-07-13T00:02:03;99807.05;;;21.78;100.00
37304;BME280;23188;51.188;16.374;2023-07-13T00:06:08;99801.10;;;21.73;100.00
37304;BME280;23188;51.188;16.374;2023-07-13T00:10:12;99793.58;;;21.66;100.00
37304;BME280;23188;51.188;16.374;2023-07-13T00:14:15;99796.27;;;21.56;100.00
37304;BME280;23188;51.188;16.374;2023-07-13T00:18:19;99802.56;;;21.46;100.00
37304;BME280;23188;51.188;16.374;2023-07-13T00:22:23;99811.67;;;21.37;100.00
37304;BME280;23188;51.188;16.374;2023-07-13T00:26:29;99811.52;;;21.26;100.00
37304;BME280;23188;51.188;16.374;2023-07-13T00:30:32;99825.88;;;21.16;100.00
37304;BME280;23188;51.188;16.374;2023-07-13T00:34:36;99833.95;;;21.08;100.00
37304;BME280;23188;51.188;16.374;2023-07-13T00:38:40;99836.66;;;21.01;100.00
37304;BME280;23188;51.188;16.374;2023-07-13T00:42:43;99842.48;;;20.93;100.00
37304;BME280;23188;51.188;16.374;2023-07-13T00:46:46;99837.48;;;20.86;100.00
37304;BME280;23188;51.188;16.374;2023-07-13T00:50:53;99833.25;;;20.72;100.00
37304;BME280;23188;51.188;16.374;2023-07-13T00:54:57;99830.15;;;20.59;100.00
37304;BME280;23188;51.188;16.374;2023-07-13T00:59:02;99832.08;;;20.44;100.00
37304;BME280;23188;51.188;16.374;2023-07-13T01:03:06;99841.87;;;20.39;100.00
37304;BME280;23188;51.188;16.374;2023-07-13T01:07:10;99842.94;;;20.36;100.00
37304;BME280;23188;51.188;16.374;2023-07-13T01:11:19;99844.84;;;20.34;100.00
37304;BME280;23188;51.188;16.374;2023-07-13T01:15:34;99848.84;;;20.34;100.00
37304;BME280;23188;51.188;16.374;2023-07-13T01:19:41;99846.38;;;20.34;100.00
37304;BME280;23188;51.188;16.374;2023-07-13T01:23:45;99830.10;;;20.29;100.00
37304;BME280;23188;51.188;16.374;2023-07-13T01:27:48;99821.75;;;20.25;100.00
37304;BME280;23188;51.188;16.374;2023-07-13T01:31:51;99806.29;;;20.15;100.00
37304;BME280;23188;51.188;16.374;2023-07-13T01:35:55;99795.05;;;20.09;100.00
37304;BME280;23188;51.188;16.374;2023-07-13T01:40:00;99779.42;;;20.06;100.00
37304;BME280;23188;51.188;16.374;2023-07-13T01:44:03;99771.70;;;20.06;100.00
37304;BME280;23188;51.188;16.374;2023-07-13T01:48:07;99774.65;;;20.08;100.00
37304;BME280;23188;51.188;16.374;2023-07-13T01:52:10;99777.77;;;20.07;100.00
37304;BME280;23188;51.188;16.374;2023-07-13T01:56:13;99784.46;;;20.03;100.00
37304;BME280;23188;51.188;16.374;2023-07-13T02:00:16;99776.39;;;20.06;100.00
37304;BME280;23188;51.188;16.374;2023-07-13T02:04:20;99769.73;;;20.05;100.00
37304;BME280;23188;51.188;16.374;2023-07-13T02:08:23;99771.17;;;20.01;100.00
37304;BME280;23188;51.188;16.374;2023-07-13T02:12:26;99770.94;;;19.96;100.00
37304;BME280;23188;51.188;16.374;2023-07-13T02:16:29;99771.08;;;19.92;100.00
37304;BME280;23188;51.188;16.374;2023-07-13T02:20:34;99776.61;;;19.89;100.00
37304;BME280;23188;51.188;16.374;2023-07-13T02:24:37;99791.65;;;19.85;100.00
37304;BME280;23188;51.188;16.374;2023-07-13T02:28:41;99793.23;;;19.76;100.00
37304;BME280;23188;51.188;16.374;2023-07-13T02:32:44;99786.28;;;19.74;100.00
37304;BME280;23188;51.188;16.374;2023-07-13T02:36:47;99787.91;;;19.76;100.00
37304;BME280;23188;51.188;16.374;2023-07-13T02:40:50;99788.35;;;19.74;100.00
37304;BME280;23188;51.188;16.374;2023-07-13T02:44:54;99802.13;;;19.74;100.00
37304;BME280;23188;51.188;16.374;2023-07-13T02:48:57;99824.42;;;19.67;100.00
37304;BME280;23188;51.188;16.374;2023-07-13T02:53:00;99827.65;;;19.52;100.00
37304;BME280;23188;51.188;16.374;2023-07-13T02:57:04;99819.54;;;19.46;100.00
37304;BME280;23188;51.188;16.374;2023-07-13T03:01:09;99818.76;;;19.58;100.00
37304;BME280;23188;51.188;16.374;2023-07-13T03:05:13;99820.59;;;19.58;100.00
37304;BME280;23188;51.188;16.374;2023-07-13T03:09:17;99823.20;;;19.54;100.00
37304;BME280;23188;51.188;16.374;2023-07-13T03:13:21;99825.00;;;19.44;100.00
37304;BME280;23188;51.188;16.374;2023-07-13T03:17:24;99821.66;;;19.36;100.00
37304;BME280;23188;51.188;16.374;2023-07-13T03:21:27;99833.98;;;19.25;100.00
37304;BME280;23188;51.188;16.374;2023-07-13T03:25:31;99847.68;;;19.37;100.00
37304;BME280;23188;51.188;16.374;2023-07-13T03:29:34;99865.55;;;19.51;100.00
37304;BME280;23188;51.188;16.374;2023-07-13T03:33:37;99875.64;;;19.50;100.00
37304;BME280;23188;51.188;16.374;2023-07-13T03:37:41;99898.38;;;19.34;100.00
37304;BME280;23188;51.188;16.374;2023-07-13T03:41:46;99929.03;;;19.05;100.00
37304;BME280;23188;51.188;16.374;2023-07-13T03:45:49;99946.39;;;18.87;100.00
37304;BME280;23188;51.188;16.374;2023-07-13T03:49:52;99971.14;;;18.61;100.00
37304;BME280;23188;51.188;16.374;2023-07-13T03:53:56;99992.04;;;18.50;100.00
37304;BME280;23188;51.188;16.374;2023-07-13T03:58:22;99992.58;;;18.37;100.00
37304;BME280;23188;51.188;16.374;2023-07-13T04:02:24;99994.08;;;18.26;100.00
37304;BME280;23188;51.188;16.374;2023-07-13T04:06:28;100007.08;;;18.11;100.00
37304;BME280;23188;51.188;16.374;2023-07-13T04:10:32;100023.89;;;18.06;100.00
37304;BME280;23188;51.188;16.374;2023-07-13T04:14:35;100038.70;;;18.00;100.00
37304;BME280;23188;51.188;16.374;2023-07-13T04:18:38;100047.52;;;17.90;100.00
37304;BME280;23188;51.188;16.374;2023-07-13T04:22:42;100052.09;;;17.90;100.00
37304;BME280;23188;51.188;16.374;2023-07-13T04:26:51;100051.56;;;17.93;100.00
37304;BME280;23188;51.188;16.374;2023-07-13T04:30:54;100037.18;;;18.05;100.00
37304;BME280;23188;51.188;16.374;2023-07-13T04:34:58;100037.98;;;18.23;100.00
37304;BME280;23188;51.188;16.374;2023-07-13T04:39:02;100018.91;;;18.36;100.00
37304;BME280;23188;51.188;16.374;2023-07-13T04:43:05;99998.85;;;18.55;100.00
37304;BME280;23188;51.188;16.374;2023-07-13T04:47:08;99961.88;;;18.68;100.00
37304;BME280;23188;51.188;16.374;2023-07-13T04:51:11;99937.37;;;18.68;100.00
37304;BME280;23188;51.188;16.374;2023-07-13T04:55:15;99931.41;;;18.66;100.00
37304;BME280;23188;51.188;16.374;2023-07-13T04:59:18;99957.96;;;18.68;100.00
37304;BME280;23188;51.188;16.374;2023-07-13T05:03:21;99986.42;;;18.76;100.00
37304;BME280;23188;51.188;16.374;2023-07-13T05:07:25;99998.10;;;18.88;100.00
37304;BME280;23188;51.188;16.374;2023-07-13T05:11:29;100005.78;;;18.98;100.00
37304;BME280;23188;51.188;16.374;2023-07-13T05:15:33;100004.08;;;19.10;100.00
37304;BME280;23188;51.188;16.374;2023-07-13T05:19:36;100009.61;;;19.18;100.00
37304;BME280;23188;51.188;16.374;2023-07-13T05:23:40;100004.69;;;19.20;100.00
37304;BME280;23188;51.188;16.374;2023-07-13T05:27:44;100010.30;;;19.21;100.00
37304;BME280;23188;51.188;16.374;2023-07-13T05:31:49;100019.56;;;19.19;100.00
37304;BME280;23188;51.188;16.374;2023-07-13T05:35:52;100020.59;;;19.11;100.00
37304;BME280;23188;51.188;16.374;2023-07-13T05:39:56;100018.18;;;19.17;100.00
37304;BME280;23188;51.188;16.374;2023-07-13T05:43:59;100014.80;;;19.30;100.00
37304;BME280;23188;51.188;16.374;2023-07-13T05:48:02;100009.57;;;19.42;100.00
37304;BME280;23188;51.188;16.374;2023-07-13T05:52:05;100006.16;;;19.57;100.00
37304;BME280;23188;51.188;16.374;2023-07-13T05:56:08;100017.27;;;19.76;100.00
37304;BME280;23188;51.188;16.374;2023-07-13T06:00:12;100026.17;;;19.87;100.00
37304;BME280;23188;51.188;16.374;2023-07-13T06:04:15;100039.13;;;20.01;100.00
37304;BME280;23188;51.188;16.374;2023-07-13T06:08:19;100040.33;;;20.12;100.00
37304;BME280;23188;51.188;16.374;2023-07-13T06:12:22;100048.60;;;20.12;100.00
37304;BME280;23188;51.188;16.374;2023-07-13T06:16:25;100069.73;;;20.05;100.00
37304;BME280;23188;51.188;16.374;2023-07-13T06:20:29;100088.44;;;19.93;100.00
37304;BME280;23188;51.188;16.374;2023-07-13T06:24:32;100088.64;;;19.73;100.00
37304;BME280;23188;51.188;16.374;2023-07-13T06:28:36;100091.05;;;19.53;100.00
37304;BME280;23188;51.188;16.374;2023-07-13T06:32:39;100095.19;;;19.33;100.00
37304;BME280;23188;51.188;16.374;2023-07-13T06:36:44;100097.04;;;19.21;100.00
37304;BME280;23188;51.188;16.374;2023-07-13T06:40:47;100094.52;;;19.07;100.00
37304;BME280;23188;51.188;16.374;2023-07-13T06:44:49;100097.87;;;19.03;100.00
37304;BME280;23188;51.188;16.374;2023-07-13T06:48:52;100088.88;;;18.92;100.00
37304;BME280;23188;51.188;16.374;2023-07-13T06:52:55;100068.02;;;18.71;100.00
37304;BME280;23188;51.188;16.374;2023-07-13T06:56:58;100053.89;;;18.69;100.00
37304;BME280;23188;51.188;16.374;2023-07-13T07:01:01;100018.25;;;18.73;100.00
37304;BME280;23188;51.188;16.374;2023-07-13T07:05:05;100003.63;;;18.80;100.00
37304;BME280;23188;51.188;16.374;2023-07-13T07:09:08;99986.43;;;18.87;100.00
37304;BME280;23188;51.188;16.374;2023-07-13T07:13:11;99982.23;;;18.95;100.00
37304;BME280;23188;51.188;16.374;2023-07-13T07:17:14;100004.27;;;19.10;100.00
37304;BME280;23188;51.188;16.374;2023-07-13T07:21:17;100032.85;;;19.41;100.00
37304;BME280;23188;51.188;16.374;2023-07-13T07:25:20;100043.02;;;19.77;100.00
37304;BME280;23188;51.188;16.374;2023-07-13T07:29:23;100045.55;;;20.06;100.00
37304;BME280;23188;51.188;16.374;2023-07-13T07:33:33;100045.02;;;20.55;100.00
37304;BME280;23188;51.188;16.374;2023-07-13T07:37:37;100046.63;;;21.06;100.00
37304;BME280;23188;51.188;16.374;2023-07-13T07:41:43;100041.54;;;21.38;100.00
37304;BME280;23188;51.188;16.374;2023-07-13T07:45:58;100039.23;;;21.57;100.00
37304;BME280;23188;51.188;16.374;2023-07-13T07:50:05;100043.21;;;21.76;100.00
37304;BME280;23188;51.188;16.374;2023-07-13T07:54:08;100039.32;;;22.08;100.00
37304;BME280;23188;51.188;16.374;2023-07-13T07:58:16;100031.90;;;22.35;100.00
37304;BME280;23188;51.188;16.374;2023-07-13T08:02:39;100030.23;;;22.69;100.00
37304;BME280;23188;51.188;16.374;2023-07-13T08:07:04;100039.50;;;23.09;100.00
37304;BME280;23188;51.188;16.374;2023-07-13T08:11:08;100041.43;;;23.32;100.00
37304;BME280;23188;51.188;16.374;2023-07-13T08:15:16;100045.17;;;23.44;99.72
37304;BME280;23188;51.188;16.374;2023-07-13T08:19:19;100045.23;;;23.56;98.87
37304;BME280;23188;51.188;16.374;2023-07-13T08:23:23;100043.55;;;23.90;99.71
37304;BME280;23188;51.188;16.374;2023-07-13T08:27:27;100045.29;;;24.18;94.98
37304;BME280;23188;51.188;16.374;2023-07-13T08:31:30;100052.42;;;24.30;95.88
37304;BME280;23188;51.188;16.374;2023-07-13T08:35:34;100061.16;;;24.65;95.86
37304;BME280;23188;51.188;16.374;2023-07-13T08:39:37;100070.22;;;24.87;92.32
37304;BME280;23188;51.188;16.374;2023-07-13T08:43:42;100069.11;;;25.03;89.08
37304;BME280;23188;51.188;16.374;2023-07-13T08:47:53;100072.91;;;24.83;82.67
37304;BME280;23188;51.188;16.374;2023-07-13T08:52:06;100083.41;;;24.81;87.28
37304;BME280;23188;51.188;16.374;2023-07-13T08:56:25;100080.90;;;24.93;87.47
37304;BME280;23188;51.188;16.374;2023-07-13T09:05:24;100088.23;;;24.85;86.04
37304;BME280;23188;51.188;16.374;2023-07-13T09:18:40;100097.14;;;24.96;79.85
37304;BME280;23188;51.188;16.374;2023-07-13T09:22:46;100097.95;;;24.99;75.84
37304;BME280;23188;51.188;16.374;2023-07-13T09:26:50;100107.10;;;25.05;76.02
37304;BME280;23188;51.188;16.374;2023-07-13T09:31:04;100110.31;;;25.13;78.66
37304;BME280;23188;51.188;16.374;2023-07-13T09:35:15;100110.30;;;25.20;79.30
37304;BME280;23188;51.188;16.374;2023-07-13T09:39:29;100104.19;;;25.08;75.69
37304;BME280;23188;51.188;16.374;2023-07-13T09:43:33;100109.15;;;25.08;75.88
37304;BME280;23188;51.188;16.374;2023-07-13T09:47:40;100109.90;;;25.31;74.58
37304;BME280;23188;51.188;16.374;2023-07-13T09:51:44;100106.21;;;25.56;71.96
37304;BME280;23188;51.188;16.374;2023-07-13T09:55:48;100103.64;;;25.88;74.09
37304;BME280;23188;51.188;16.374;2023-07-13T09:59:56;100101.80;;;25.87;72.06
37304;BME280;23188;51.188;16.374;2023-07-13T10:04:10;100094.27;;;25.79;72.33
37304;BME280;23188;51.188;16.374;2023-07-13T10:12:30;100096.46;;;25.91;67.81
37304;BME280;23188;51.188;16.374;2023-07-13T10:16:41;100101.10;;;25.80;69.84
37304;BME280;23188;51.188;16.374;2023-07-13T10:20:46;100103.20;;;25.69;69.19
37304;BME280;23188;51.188;16.374;2023-07-13T10:24:54;100100.71;;;25.47;70.22
37304;BME280;23188;51.188;16.374;2023-07-13T10:29:03;100107.98;;;25.26;71.74
37304;BME280;23188;51.188;16.374;2023-07-13T10:33:11;100105.98;;;25.22;73.55
37304;BME280;23188;51.188;16.374;2023-07-13T10:37:19;100109.95;;;25.33;72.78
37304;BME280;23188;51.188;16.374;2023-07-13T10:41:30;100113.10;;;25.36;72.03
37304;BME280;23188;51.188;16.374;2023-07-13T10:45:35;100103.80;;;25.71;72.48
37304;BME280;23188;51.188;16.374;2023-07-13T10:49:41;100097.36;;;26.02;72.16
37304;BME280;23188;51.188;16.374;2023-07-13T10:53:46;100096.59;;;26.10;69.56
37304;BME280;23188;51.188;16.374;2023-07-13T10:57:51;100098.35;;;26.09;70.22
37304;BME280;23188;51.188;16.374;2023-07-13T11:01:58;100104.95;;;25.98;70.59
37304;BME280;23188;51.188;16.374;2023-07-13T11:06:07;100108.77;;;25.90;71.74
37304;BME280;23188;51.188;16.374;2023-07-13T11:11:31;100107.33;;;25.93;71.60
37304;BME280;23188;51.188;16.374;2023-07-13T11:27:39;100098.08;;;25.93;69.14
37304;BME280;23188;51.188;16.374;2023-07-13T11:31:52;100095.39;;;26.10;69.21
37304;BME280;23188;51.188;16.374;2023-07-13T11:40:00;100093.27;;;26.31;68.48
37304;BME280;23188;51.188;16.374;2023-07-13T11:44:16;100089.98;;;26.55;68.44
37304;BME280;23188;51.188;16.374;2023-07-13T11:48:29;100092.35;;;26.84;61.88
37304;BME280;23188;51.188;16.374;2023-07-13T11:52:36;100093.23;;;26.96;62.32
37304;BME280;23188;51.188;16.374;2023-07-13T11:56:40;100091.88;;;27.12;59.44
37304;BME280;23188;51.188;16.374;2023-07-13T12:00:44;100092.30;;;27.33;59.52
37304;BME280;23188;51.188;16.374;2023-07-13T12:04:49;100086.20;;;27.53;55.71
37304;BME280;23188;51.188;16.374;2023-07-13T12:08:59;100073.98;;;27.78;57.76
37304;BME280;23188;51.188;16.374;2023-07-13T12:13:05;100078.35;;;27.89;54.51
37304;BME280;23188;51.188;16.374;2023-07-13T12:17:20;100081.94;;;27.94;53.02
37304;BME280;23188;51.188;16.374;2023-07-13T12:25:34;100069.75;;;28.16;51.73
37304;BME280;23188;51.188;16.374;2023-07-13T12:29:39;100070.23;;;28.16;54.05
37304;BME280;23188;51.188;16.374;2023-07-13T12:33:43;100061.23;;;28.05;52.72
37304;BME280;23188;51.188;16.374;2023-07-13T12:37:47;100055.42;;;28.11;52.51
37304;BME280;23188;51.188;16.374;2023-07-13T12:41:52;100051.17;;;28.15;51.12
37304;BME280;23188;51.188;16.374;2023-07-13T12:46:02;100043.60;;;28.26;51.57
37304;BME280;23188;51.188;16.374;2023-07-13T12:50:18;100045.27;;;28.46;54.38
37304;BME280;23188;51.188;16.374;2023-07-13T12:54:21;100040.32;;;28.56;53.01
37304;BME280;23188;51.188;16.374;2023-07-13T13:02:32;100042.05;;;28.78;51.23
37304;BME280;23188;51.188;16.374;2023-07-13T13:06:39;100044.10;;;28.87;49.89
37304;BME280;23188;51.188;16.374;2023-07-13T13:10:44;100046.25;;;28.84;48.63
37304;BME280;23188;51.188;16.374;2023-07-13T13:14:49;100039.33;;;28.91;48.44
37304;BME280;23188;51.188;16.374;2023-07-13T13:18:57;100036.66;;;29.00;46.94
37304;BME280;23188;51.188;16.374;2023-07-13T13:23:02;100030.11;;;29.07;47.02
37304;BME280;23188;51.188;16.374;2023-07-13T13:27:15;100026.89;;;29.07;46.36
37304;BME280;23188;51.188;16.374;2023-07-13T13:31:19;100037.84;;;28.82;48.43
37304;BME280;23188;51.188;16.374;2023-07-13T13:35:23;100034.18;;;28.64;48.92
37304;BME280;23188;51.188;16.374;2023-07-13T13:39:38;100038.85;;;28.45;49.57
37304;BME280;23188;51.188;16.374;2023-07-13T13:43:47;100037.10;;;28.07;50.43
37304;BME280;23188;51.188;16.374;2023-07-13T13:47:51;100050.05;;;27.65;52.16
37304;BME280;23188;51.188;16.374;2023-07-13T13:51:56;100057.52;;;27.33;53.66
37304;BME280;23188;51.188;16.374;2023-07-13T13:55:59;100060.51;;;26.97;56.09
37304;BME280;23188;51.188;16.374;2023-07-13T14:00:03;100060.82;;;26.57;58.66
37304;BME280;23188;51.188;16.374;2023-07-13T14:04:13;100064.32;;;26.30;60.87
37304;BME280;23188;51.188;16.374;2023-07-13T14:08:20;100066.23;;;26.10;63.34
37304;BME280;23188;51.188;16.374;2023-07-13T14:12:23;100057.45;;;25.94;63.47
37304;BME280;23188;51.188;16.374;2023-07-13T14:16:33;100058.83;;;25.83;63.48
37304;BME280;23188;51.188;16.374;2023-07-13T14:20:37;100061.31;;;26.09;64.86
37304;BME280;23188;51.188;16.374;2023-07-13T14:24:40;100049.79;;;26.43;61.70
37304;BME280;23188;51.188;16.374;2023-07-13T14:28:47;100044.94;;;26.72;57.48
37304;BME280;23188;51.188;16.374;2023-07-13T14:32:51;100037.27;;;27.05;56.40
37304;BME280;23188;51.188;16.374;2023-07-13T14:36:55;100024.41;;;27.29;54.95
37304;BME280;23188;51.188;16.374;2023-07-13T14:40:59;100022.11;;;27.44;54.40
37304;BME280;23188;51.188;16.374;2023-07-13T14:45:03;100019.46;;;27.59;55.08
37304;BME280;23188;51.188;16.374;2023-07-13T14:49:20;100011.05;;;27.71;54.48
37304;BME280;23188;51.188;16.374;2023-07-13T14:53:27;100013.84;;;27.88;53.68
37304;BME280;23188;51.188;16.374;2023-07-13T14:57:33;100010.52;;;28.06;53.69
37304;BME280;23188;51.188;16.374;2023-07-13T15:01:38;100013.96;;;28.25;51.55
37304;BME280;23188;51.188;16.374;2023-07-13T15:05:43;100009.37;;;28.45;51.61
37304;BME280;23188;51.188;16.374;2023-07-13T15:09:47;100008.08;;;28.58;51.27
37304;BME280;23188;51.188;16.374;2023-07-13T15:13:51;100007.09;;;28.71;50.29
37304;BME280;23188;51.188;16.374;2023-07-13T15:17:55;100013.91;;;28.81;50.54
37304;BME280;23188;51.188;16.374;2023-07-13T15:21:59;100018.23;;;28.85;50.43
37304;BME280;23188;51.188;16.374;2023-07-13T15:26:03;100016.50;;;28.90;51.43
37304;BME280;23188;51.188;16.374;2023-07-13T15:30:07;100012.57;;;28.60;50.65
37304;BME280;23188;51.188;16.374;2023-07-13T15:34:13;100017.17;;;28.23;51.52
37304;BME280;23188;51.188;16.374;2023-07-13T15:38:20;100015.58;;;27.84;52.76
37304;BME280;23188;51.188;16.374;2023-07-13T15:42:24;100013.95;;;27.59;53.13
37304;BME280;23188;51.188;16.374;2023-07-13T15:46:28;100014.42;;;27.50;54.00
37304;BME280;23188;51.188;16.374;2023-07-13T15:50:42;100018.01;;;27.43;55.21
37304;BME280;23188;51.188;16.374;2023-07-13T15:54:47;100024.52;;;27.35;54.82
37304;BME280;23188;51.188;16.374;2023-07-13T15:58:52;100023.48;;;27.39;53.87
37304;BME280;23188;51.188;16.374;2023-07-13T16:02:56;100032.54;;;27.26;55.37
37304;BME280;23188;51.188;16.374;2023-07-13T16:07:01;100031.96;;;26.99;54.94
37304;BME280;23188;51.188;16.374;2023-07-13T16:11:04;100031.17;;;27.01;55.31
37304;BME280;23188;51.188;16.374;2023-07-13T16:15:19;100034.44;;;27.12;56.41
37304;BME280;23188;51.188;16.374;2023-07-13T16:19:23;100034.66;;;27.35;57.22
37304;BME280;23188;51.188;16.374;2023-07-13T16:23:32;100034.23;;;27.61;56.41
37304;BME280;23188;51.188;16.374;2023-07-13T16:27:36;100032.77;;;27.76;54.84
37304;BME280;23188;51.188;16.374;2023-07-13T16:31:39;100035.13;;;27.84;54.31
37304;BME280;23188;51.188;16.374;2023-07-13T16:35:42;100035.38;;;27.86;55.74
37304;BME280;23188;51.188;16.374;2023-07-13T16:39:49;100030.66;;;27.95;54.85
37304;BME280;23188;51.188;16.374;2023-07-13T16:43:56;100034.48;;;27.88;53.61
37304;BME280;23188;51.188;16.374;2023-07-13T16:48:01;100037.14;;;27.76;53.10
37304;BME280;23188;51.188;16.374;2023-07-13T16:52:05;100040.52;;;27.67;53.53
37304;BME280;23188;51.188;16.374;2023-07-13T16:56:14;100037.65;;;27.65;55.28
37304;BME280;23188;51.188;16.374;2023-07-13T17:00:28;100040.06;;;27.62;55.90
37304;BME280;23188;51.188;16.374;2023-07-13T17:04:32;100038.64;;;27.56;56.28
37304;BME280;23188;51.188;16.374;2023-07-13T17:08:37;100042.86;;;27.44;57.83
37304;BME280;23188;51.188;16.374;2023-07-13T17:12:42;100044.42;;;27.23;57.11
37304;BME280;23188;51.188;16.374;2023-07-13T17:16:47;100044.45;;;27.01;57.12
37304;BME280;23188;51.188;16.374;2023-07-13T17:20:53;100046.05;;;26.85;57.16
37304;BME280;23188;51.188;16.374;2023-07-13T17:24:57;100047.97;;;26.69;58.40
37304;BME280;23188;51.188;16.374;2023-07-13T17:29:04;100053.34;;;26.49;63.47
37304;BME280;23188;51.188;16.374;2023-07-13T17:33:31;100062.05;;;26.35;64.58
37304;BME280;23188;51.188;16.374;2023-07-13T17:37:35;100065.66;;;26.15;65.67
37304;BME280;23188;51.188;16.374;2023-07-13T17:41:39;100070.13;;;25.75;61.97
37304;BME280;23188;51.188;16.374;2023-07-13T17:45:45;100078.75;;;25.55;63.06
37304;BME280;23188;51.188;16.374;2023-07-13T17:49:49;100080.92;;;25.37;61.45
37304;BME280;23188;51.188;16.374;2023-07-13T17:53:53;100085.16;;;25.30;62.18
37304;BME280;23188;51.188;16.374;2023-07-13T17:58:00;100088.33;;;25.28;63.17
37304;BME280;23188;51.188;16.374;2023-07-13T18:02:15;100088.00;;;25.28;65.40
37304;BME280;23188;51.188;16.374;2023-07-13T18:06:31;100096.11;;;25.28;66.35
37304;BME280;23188;51.188;16.374;2023-07-13T18:10:35;100100.23;;;25.23;68.32
37304;BME280;23188;51.188;16.374;2023-07-13T18:14:38;100101.09;;;25.14;71.13
37304;BME280;23188;51.188;16.374;2023-07-13T18:18:41;100103.80;;;25.04;74.61
37304;BME280;23188;51.188;16.374;2023-07-13T18:22:45;100107.95;;;24.88;75.62
37304;BME280;23188;51.188;16.374;2023-07-13T18:26:48;100115.12;;;24.67;76.78
37304;BME280;23188;51.188;16.374;2023-07-13T18:30:54;100119.39;;;24.46;77.66
37304;BME280;23188;51.188;16.374;2023-07-13T18:35:02;100111.98;;;24.15;80.20
37304;BME280;23188;51.188;16.374;2023-07-13T18:39:12;100111.25;;;23.88;79.81
37304;BME280;23188;51.188;16.374;2023-07-13T18:43:16;100123.69;;;23.69;79.28
37304;BME280;23188;51.188;16.374;2023-07-13T18:47:20;100126.33;;;23.56;80.09
37304;BME280;23188;51.188;16.374;2023-07-13T18:51:27;100155.98;;;23.48;81.39
37304;BME280;23188;51.188;16.374;2023-07-13T18:55:31;100175.18;;;23.38;88.25
37304;BME280;23188;51.188;16.374;2023-07-13T18:59:36;100171.27;;;23.24;93.16
37304;BME280;23188;51.188;16.374;2023-07-13T19:03:39;100172.71;;;23.06;97.86
37304;BME280;23188;51.188;16.374;2023-07-13T19:07:43;100169.41;;;22.74;99.84
37304;BME280;23188;51.188;16.374;2023-07-13T19:11:47;100170.11;;;22.35;99.21
37304;BME280;23188;51.188;16.374;2023-07-13T19:15:50;100171.80;;;22.13;96.98
37304;BME280;23188;51.188;16.374;2023-07-13T19:19:54;100182.79;;;21.95;97.33
37304;BME280;23188;51.188;16.374;2023-07-13T19:23:58;100187.42;;;21.76;98.38
37304;BME280;23188;51.188;16.374;2023-07-13T19:28:23;100190.48;;;21.52;98.44
37304;BME280;23188;51.188;16.374;2023-07-13T19:32:27;100189.91;;;21.36;99.20
37304;BME280;23188;51.188;16.374;2023-07-13T19:36:33;100194.01;;;21.19;99.13
37304;BME280;23188;51.188;16.374;2023-07-13T19:40:37;100199.21;;;21.02;98.90
37304;BME280;23188;51.188;16.374;2023-07-13T19:44:40;100206.37;;;20.84;99.12
37304;BME280;23188;51.188;16.374;2023-07-13T19:48:44;100207.61;;;20.73;98.29
37304;BME280;23188;51.188;16.374;2023-07-13T19:52:52;100206.59;;;20.65;98.76
37304;BME280;23188;51.188;16.374;2023-07-13T19:56:58;100221.13;;;20.54;99.78
37304;BME280;23188;51.188;16.374;2023-07-13T20:01:02;100219.20;;;20.43;97.24
37304;BME280;23188;51.188;16.374;2023-07-13T20:05:05;100223.83;;;20.33;95.87
37304;BME280;23188;51.188;16.374;2023-07-13T20:09:21;100227.70;;;20.22;97.02
37304;BME280;23188;51.188;16.374;2023-07-13T20:13:44;100225.04;;;20.10;96.23
37304;BME280;23188;51.188;16.374;2023-07-13T20:17:50;100224.71;;;20.03;99.28
37304;BME280;23188;51.188;16.374;2023-07-13T20:21:54;100223.14;;;19.87;99.01
37304;BME280;23188;51.188;16.374;2023-07-13T20:25:58;100226.00;;;19.78;99.18
37304;BME280;23188;51.188;16.374;2023-07-13T20:30:01;100224.83;;;19.75;99.60
37304;BME280;23188;51.188;16.374;2023-07-13T20:34:05;100230.02;;;19.72;99.87
37304;BME280;23188;51.188;16.374;2023-07-13T20:38:12;100238.75;;;19.68;100.00
37304;BME280;23188;51.188;16.374;2023-07-13T20:42:16;100241.09;;;19.59;100.00
37304;BME280;23188;51.188;16.374;2023-07-13T20:46:21;100244.73;;;19.49;100.00
37304;BME280;23188;51.188;16.374;2023-07-13T20:50:28;100246.30;;;19.38;100.00
37304;BME280;23188;51.188;16.374;2023-07-13T20:54:32;100251.89;;;19.29;100.00
37304;BME280;23188;51.188;16.374;2023-07-13T20:58:35;100253.04;;;19.24;100.00
37304;BME280;23188;51.188;16.374;2023-07-13T21:02:38;100253.58;;;19.18;100.00
37304;BME280;23188;51.188;16.374;2023-07-13T21:06:41;100254.73;;;19.12;100.00
37304;BME280;23188;51.188;16.374;2023-07-13T21:10:45;100260.79;;;18.88;100.00
37304;BME280;23188;51.188;16.374;2023-07-13T21:14:50;100260.86;;;18.75;100.00
37304;BME280;23188;51.188;16.374;2023-07-13T21:18:53;100269.41;;;18.63;100.00
37304;BME280;23188;51.188;16.374;2023-07-13T21:22:57;100283.04;;;18.49;100.00
37304;BME280;23188;51.188;16.374;2023-07-13T21:27:00;100297.33;;;18.39;100.00
37304;BME280;23188;51.188;16.374;2023-07-13T21:31:29;100305.41;;;18.37;100.00
37304;BME280;23188;51.188;16.374;2023-07-13T21:35:35;100308.27;;;18.20;100.00
37304;BME280;23188;51.188;16.374;2023-07-13T21:39:41;100305.77;;;18.13;100.00
37304;BME280;23188;51.188;16.374;2023-07-13T21:43:45;100307.69;;;18.17;100.00
37304;BME280;23188;51.188;16.374;2023-07-13T21:47:49;100307.85;;;18.18;100.00